sensor_id;sensor_type;location;lat;lon;timestamp;P1;durP1;ratioP1;P2;durP2;ratioP2
51298;SDS011;37382;45.192;9.790;2023-01-15T04:53:28;84.18;;;51.25;;
51298;SDS011;37382;45.192;9.790;2023-01-15T04:56:00;86.72;;;51.42;;
51298;SDS011;37382;45.192;9.790;2023-01-15T04:58:31;77.90;;;50.95;;
51298;SDS011;37382;45.192;9.790;2023-01-15T05:00:59;78.47;;;51.22;;
51298;SDS011;37382;45.192;9.790;2023-01-15T05:03:27;79.65;;;52.53;;
51298;SDS011;37382;45.192;9.790;2023-01-15T05:05:59;77.68;;;53.25;;
51298;SDS011;37382;45.192;9.790;2023-01-15T05:08:28;81.28;;;52.88;;
51298;SDS011;37382;45.192;9.790;2023-01-15T05:10:59;81.05;;;51.13;;
51298;SDS011;37382;45.192;9.790;2023-01-15T05:13:28;79.22;;;49.83;;
51298;SDS011;37382;45.192;9.790;2023-01-15T05:18:35;79.72;;;51.28;;
51298;SDS011;37382;45.192;9.790;2023-01-15T05:21:04;81.15;;;51.40;;
51298;SDS011;37382;45.192;9.790;2023-01-15T05:23:32;75.78;;;49.35;;
51298;SDS011;37382;45.192;9.790;2023-01-15T05:26:01;76.47;;;51.70;;
51298;SDS011;37382;45.192;9.790;2023-01-15T05:28:30;83.75;;;52.03;;
51298;SDS011;37382;45.192;9.790;2023-01-15T05:30:57;80.68;;;51.35;;
51298;SDS011;37382;45.192;9.790;2023-01-15T05:33:25;75.97;;;50.25;;
51298;SDS011;37382;45.192;9.790;2023-01-15T05:35:52;77.20;;;51.17;;
51298;SDS011;37382;45.192;9.790;2023-01-15T05:38:19;83.60;;;51.30;;
51298;SDS011;37382;45.192;9.790;2023-01-15T05:40:47;82.47;;;53.35;;
51298;SDS011;37382;45.192;9.790;2023-01-15T05:43:15;79.15;;;52.20;;
51298;SDS011;37382;45.192;9.790;2023-01-15T05:45:42;84.25;;;52.33;;
51298;SDS011;37382;45.192;9.790;2023-01-15T05:48:09;77.88;;;50.75;;
51298;SDS011;37382;45.192;9.790;2023-01-15T05:50:37;76.88;;;51.75;;
51298;SDS011;37382;45.192;9.790;2023-01-15T05:53:05;81.50;;;52.03;;
51298;SDS011;37382;45.192;9.790;2023-01-15T05:55:33;77.78;;;52.80;;
51298;SDS011;37382;45.192;9.790;2023-01-15T05:58:00;79.18;;;51.03;;
51298;SDS011;37382;45.192;9.790;2023-01-15T06:00:28;72.72;;;50.67;;
51298;SDS011;37382;45.192;9.790;2023-01-15T06:02:56;77.03;;;51.03;;
51298;SDS011;37382;45.192;9.790;2023-01-15T06:05:24;87.80;;;53.15;;
51298;SDS011;37382;45.192;9.790;2023-01-15T06:07:51;75.90;;;50.60;;
51298;SDS011;37382;45.192;9.790;2023-01-15T06:10:19;76.20;;;49.85;;
51298;SDS011;37382;45.192;9.790;2023-01-15T06:12:47;78.95;;;50.72;;
51298;SDS011;37382;45.192;9.790;2023-01-15T06:15:14;74.78;;;50.38;;
51298;SDS011;37382;45.192;9.790;2023-01-15T06:17:41;74.18;;;50.50;;
51298;SDS011;37382;45.192;9.790;2023-01-15T06:20:09;73.40;;;49.35;;
51298;SDS011;37382;45.192;9.790;2023-01-15T06:22:37;78.72;;;52.85;;
51298;SDS011;37382;45.192;9.790;2023-01-15T06:25:05;74.07;;;50.30;;
51298;SDS011;37382;45.192;9.790;2023-01-15T06:27:32;80.82;;;51.47;;
51298;SDS011;37382;45.192;9.790;2023-01-15T06:30:00;75.40;;;50.70;;
51298;SDS011;37382;45.192;9.790;2023-01-15T06:32:27;84.78;;;52.30;;
51298;SDS011;37382;45.192;9.790;2023-01-15T06:34:55;79.40;;;51.30;;
51298;SDS011;37382;45.192;9.790;2023-01-15T06:37:23;77.30;;;50.83;;
51298;SDS011;37382;45.192;9.790;2023-01-15T06:39:50;77.43;;;50.58;;
51298;SDS011;37382;45.192;9.790;2023-01-15T06:42:17;77.72;;;50.65;;
51298;SDS011;37382;45.192;9.790;2023-01-15T06:45:04;76.38;;;50.08;;
51298;SDS011;37382;45.192;9.790;2023-01-15T06:47:51;78.05;;;50.38;;
51298;SDS011;37382;45.192;9.790;2023-01-15T06:50:18;76.38;;;50.67;;
51298;SDS011;37382;45.192;9.790;2023-01-15T06:52:46;80.97;;;51.65;;
51298;SDS011;37382;45.192;9.790;2023-01-15T06:55:13;78.15;;;49.40;;
51298;SDS011;37382;45.192;9.790;2023-01-15T06:57:41;76.70;;;51.25;;
51298;SDS011;37382;45.192;9.790;2023-01-15T07:00:09;77.63;;;51.92;;
51298;SDS011;37382;45.192;9.790;2023-01-15T07:02:38;81.05;;;51.50;;
51298;SDS011;37382;45.192;9.790;2023-01-15T07:05:07;81.50;;;50.35;;
51298;SDS011;37382;45.192;9.790;2023-01-15T07:07:35;78.85;;;52.13;;
51298;SDS011;37382;45.192;9.790;2023-01-15T07:10:03;75.05;;;50.58;;
51298;SDS011;37382;45.192;9.790;2023-01-15T07:12:31;77.07;;;52.72;;
51298;SDS011;37382;45.192;9.790;2023-01-15T07:15:00;80.45;;;52.47;;
51298;SDS011;37382;45.192;9.790;2023-01-15T07:17:28;89.53;;;52.33;;
51298;SDS011;37382;45.192;9.790;2023-01-15T07:19:57;85.45;;;52.17;;
51298;SDS011;37382;45.192;9.790;2023-01-15T07:22:24;77.05;;;51.28;;
51298;SDS011;37382;45.192;9.790;2023-01-15T07:24:52;79.28;;;51.17;;
51298;SDS011;37382;45.192;9.790;2023-01-15T07:27:19;80.25;;;53.22;;
51298;SDS011;37382;45.192;9.790;2023-01-15T07:29:46;85.47;;;55.20;;
51298;SDS011;37382;45.192;9.790;2023-01-15T07:32:15;83.78;;;54.17;;
51298;SDS011;37382;45.192;9.790;2023-01-15T07:34:42;78.95;;;51.08;;
51298;SDS011;37382;45.192;9.790;2023-01-15T07:37:11;80.70;;;52.55;;
51298;SDS011;37382;45.192;9.790;2023-01-15T07:39:38;84.93;;;54.25;;
51298;SDS011;37382;45.192;9.790;2023-01-15T07:42:08;79.78;;;52.50;;
51298;SDS011;37382;45.192;9.790;2023-01-15T07:44:55;84.22;;;55.28;;
51298;SDS011;37382;45.192;9.790;2023-01-15T07:47:41;86.00;;;53.15;;
51298;SDS011;37382;45.192;9.790;2023-01-15T07:50:27;78.15;;;53.22;;
51298;SDS011;37382;45.192;9.790;2023-01-15T07:52:55;83.85;;;54.03;;
51298;SDS011;37382;45.192;9.790;2023-01-15T07:55:23;89.82;;;55.50;;
51298;SDS011;37382;45.192;9.790;2023-01-15T07:57:50;85.03;;;54.03;;
51298;SDS011;37382;45.192;9.790;2023-01-15T08:00:20;80.55;;;54.55;;
51298;SDS011;37382;45.192;9.790;2023-01-15T08:02:49;79.32;;;54.33;;
51298;SDS011;37382;45.192;9.790;2023-01-15T08:05:18;84.97;;;52.72;;
51298;SDS011;37382;45.192;9.790;2023-01-15T08:07:46;87.05;;;53.30;;
51298;SDS011;37382;45.192;9.790;2023-01-15T08:10:15;83.72;;;55.20;;
51298;SDS011;37382;45.192;9.790;2023-01-15T08:12:42;81.85;;;54.05;;
51298;SDS011;37382;45.192;9.790;2023-01-15T08:15:30;80.78;;;52.85;;
51298;SDS011;37382;45.192;9.790;2023-01-15T08:18:01;78.03;;;52.80;;
51298;SDS011;37382;45.192;9.790;2023-01-15T08:20:28;83.28;;;52.85;;
51298;SDS011;37382;45.192;9.790;2023-01-15T08:22:55;80.28;;;54.05;;
51298;SDS011;37382;45.192;9.790;2023-01-15T08:25:23;84.53;;;55.78;;
51298;SDS011;37382;45.192;9.790;2023-01-15T08:27:51;83.80;;;55.08;;
51298;SDS011;37382;45.192;9.790;2023-01-15T08:30:20;81.00;;;52.83;;
51298;SDS011;37382;45.192;9.790;2023-01-15T08:32:50;87.28;;;56.22;;
51298;SDS011;37382;45.192;9.790;2023-01-15T08:35:17;87.25;;;58.15;;
51298;SDS011;37382;45.192;9.790;2023-01-15T08:37:45;91.60;;;57.45;;
51298;SDS011;37382;45.192;9.790;2023-01-15T08:40:12;88.80;;;56.03;;
51298;SDS011;37382;45.192;9.790;2023-01-15T08:42:40;93.70;;;58.83;;
51298;SDS011;37382;45.192;9.790;2023-01-15T08:45:08;88.95;;;54.97;;
51298;SDS011;37382;45.192;9.790;2023-01-15T08:47:36;88.97;;;59.17;;
51298;SDS011;37382;45.192;9.790;2023-01-15T08:50:04;86.57;;;58.80;;
51298;SDS011;37382;45.192;9.790;2023-01-15T08:52:34;85.40;;;57.35;;
51298;SDS011;37382;45.192;9.790;2023-01-15T08:55:04;89.80;;;58.83;;
51298;SDS011;37382;45.192;9.790;2023-01-15T08:57:32;90.30;;;60.90;;
51298;SDS011;37382;45.192;9.790;2023-01-15T08:59:59;90.65;;;57.30;;
51298;SDS011;37382;45.192;9.790;2023-01-15T09:02:26;87.50;;;59.33;;
51298;SDS011;37382;45.192;9.790;2023-01-15T09:04:55;95.75;;;62.92;;
51298;SDS011;37382;45.192;9.790;2023-01-15T09:07:23;96.35;;;61.05;;
51298;SDS011;37382;45.192;9.790;2023-01-15T09:09:50;83.15;;;57.15;;
51298;SDS011;37382;45.192;9.790;2023-01-15T09:12:17;94.15;;;61.95;;
51298;SDS011;37382;45.192;9.790;2023-01-15T09:14:45;91.70;;;61.03;;
51298;SDS011;37382;45.192;9.790;2023-01-15T09:17:27;92.40;;;60.88;;
51298;SDS011;37382;45.192;9.790;2023-01-15T09:19:55;95.15;;;59.03;;
51298;SDS011;37382;45.192;9.790;2023-01-15T09:22:23;87.35;;;58.60;;
51298;SDS011;37382;45.192;9.790;2023-01-15T09:24:54;90.78;;;58.88;;
51298;SDS011;37382;45.192;9.790;2023-01-15T09:27:21;90.18;;;57.88;;
51298;SDS011;37382;45.192;9.790;2023-01-15T09:29:49;89.25;;;57.22;;
51298;SDS011;37382;45.192;9.790;2023-01-15T09:32:16;83.90;;;55.85;;
51298;SDS011;37382;45.192;9.790;2023-01-15T09:34:43;89.47;;;58.33;;
51298;SDS011;37382;45.192;9.790;2023-01-15T09:37:11;88.68;;;56.03;;
51298;SDS011;37382;45.192;9.790;2023-01-15T09:39:39;88.82;;;56.50;;
51298;SDS011;37382;45.192;9.790;2023-01-15T09:55:59;91.28;;;60.42;;
51298;SDS011;37382;45.192;9.790;2023-01-15T09:58:34;88.57;;;58.92;;
51298;SDS011;37382;45.192;9.790;2023-01-15T10:01:04;92.75;;;60.38;;
51298;SDS011;37382;45.192;9.790;2023-01-15T10:03:44;102.00;;;60.05;;
51298;SDS011;37382;45.192;9.790;2023-01-15T10:06:43;95.18;;;59.75;;
51298;SDS011;37382;45.192;9.790;2023-01-15T10:09:20;91.03;;;58.22;;
51298;SDS011;37382;45.192;9.790;2023-01-15T10:11:56;94.65;;;58.75;;
51298;SDS011;37382;45.192;9.790;2023-01-15T10:17:43;91.07;;;58.45;;
51298;SDS011;37382;45.192;9.790;2023-01-15T10:23:05;86.45;;;58.70;;
51298;SDS011;37382;45.192;9.790;2023-01-15T10:25:46;89.00;;;57.75;;
51298;SDS011;37382;45.192;9.790;2023-01-15T10:28:50;97.03;;;61.38;;
51298;SDS011;37382;45.192;9.790;2023-01-15T10:31:19;94.18;;;61.10;;
51298;SDS011;37382;45.192;9.790;2023-01-15T10:36:27;94.45;;;61.95;;
51298;SDS011;37382;45.192;9.790;2023-01-15T10:39:29;88.57;;;59.47;;
51298;SDS011;37382;45.192;9.790;2023-01-15T10:42:09;94.30;;;62.00;;
51298;SDS011;37382;45.192;9.790;2023-01-15T10:45:03;90.57;;;59.38;;
51298;SDS011;37382;45.192;9.790;2023-01-15T10:47:39;91.97;;;58.43;;
51298;SDS011;37382;45.192;9.790;2023-01-15T10:50:18;87.25;;;60.72;;
51298;SDS011;37382;45.192;9.790;2023-01-15T10:55:36;92.20;;;55.22;;
51298;SDS011;37382;45.192;9.790;2023-01-15T11:01:02;95.13;;;58.60;;
51298;SDS011;37382;45.192;9.790;2023-01-15T11:03:36;88.13;;;57.78;;
51298;SDS011;37382;45.192;9.790;2023-01-15T11:06:09;91.00;;;58.67;;
51298;SDS011;37382;45.192;9.790;2023-01-15T11:08:50;92.40;;;59.70;;
51298;SDS011;37382;45.192;9.790;2023-01-15T11:11:45;88.70;;;58.03;;
51298;SDS011;37382;45.192;9.790;2023-01-15T11:14:31;95.18;;;61.97;;
51298;SDS011;37382;45.192;9.790;2023-01-15T11:17:21;95.93;;;62.08;;
51298;SDS011;37382;45.192;9.790;2023-01-15T11:22:48;98.80;;;61.00;;
51298;SDS011;37382;45.192;9.790;2023-01-15T11:25:29;92.32;;;61.38;;
51298;SDS011;37382;45.192;9.790;2023-01-15T11:27:59;96.95;;;60.65;;
51298;SDS011;37382;45.192;9.790;2023-01-15T11:30:32;98.75;;;62.75;;
51298;SDS011;37382;45.192;9.790;2023-01-15T11:33:19;95.40;;;60.78;;
51298;SDS011;37382;45.192;9.790;2023-01-15T11:35:52;88.03;;;58.95;;
51298;SDS011;37382;45.192;9.790;2023-01-15T11:38:29;94.97;;;59.72;;
51298;SDS011;37382;45.192;9.790;2023-01-15T11:43:55;89.40;;;59.45;;
51298;SDS011;37382;45.192;9.790;2023-01-15T11:46:46;95.72;;;61.40;;
51298;SDS011;37382;45.192;9.790;2023-01-15T11:49:32;99.65;;;60.67;;
51298;SDS011;37382;45.192;9.790;2023-01-15T11:52:19;94.03;;;63.45;;
51298;SDS011;37382;45.192;9.790;2023-01-15T11:54:51;94.57;;;61.55;;
51298;SDS011;37382;45.192;9.790;2023-01-15T11:57:31;92.05;;;61.03;;
51298;SDS011;37382;45.192;9.790;2023-01-15T12:00:00;90.07;;;60.70;;
51298;SDS011;37382;45.192;9.790;2023-01-15T12:02:37;100.60;;;63.03;;
51298;SDS011;37382;45.192;9.790;2023-01-15T12:05:17;98.35;;;64.70;;
51298;SDS011;37382;45.192;9.790;2023-01-15T12:07:47;94.85;;;63.67;;
51298;SDS011;37382;45.192;9.790;2023-01-15T12:13:52;106.60;;;66.47;;
51298;SDS011;37382;45.192;9.790;2023-01-15T12:16:29;96.15;;;64.43;;
51298;SDS011;37382;45.192;9.790;2023-01-15T12:19:20;109.25;;;65.90;;
51298;SDS011;37382;45.192;9.790;2023-01-15T12:21:57;98.13;;;65.88;;
51298;SDS011;37382;45.192;9.790;2023-01-15T12:33:19;100.90;;;64.68;;
51298;SDS011;37382;45.192;9.790;2023-01-15T12:35:48;105.45;;;70.53;;
51298;SDS011;37382;45.192;9.790;2023-01-15T12:38:28;110.07;;;69.50;;
51298;SDS011;37382;45.192;9.790;2023-01-15T12:41:00;104.60;;;68.88;;
51298;SDS011;37382;45.192;9.790;2023-01-15T12:43:34;105.63;;;68.40;;
51298;SDS011;37382;45.192;9.790;2023-01-15T12:46:22;100.00;;;69.22;;
51298;SDS011;37382;45.192;9.790;2023-01-15T12:49:20;108.00;;;69.53;;
51298;SDS011;37382;45.192;9.790;2023-01-15T12:54:39;105.22;;;70.35;;
51298;SDS011;37382;45.192;9.790;2023-01-15T12:57:23;102.38;;;68.80;;
51298;SDS011;37382;45.192;9.790;2023-01-15T13:00:06;113.75;;;71.07;;
51298;SDS011;37382;45.192;9.790;2023-01-15T13:05:33;108.13;;;74.77;;
51298;SDS011;37382;45.192;9.790;2023-01-15T13:11:03;105.00;;;67.18;;
51298;SDS011;37382;45.192;9.790;2023-01-15T13:13:38;100.28;;;66.55;;
51298;SDS011;37382;45.192;9.790;2023-01-15T13:16:12;107.68;;;66.25;;
51298;SDS011;37382;45.192;9.790;2023-01-15T13:21:16;101.18;;;68.88;;
51298;SDS011;37382;45.192;9.790;2023-01-15T13:31:59;107.28;;;72.63;;
51298;SDS011;37382;45.192;9.790;2023-01-15T13:39:57;132.63;;;81.50;;
51298;SDS011;37382;45.192;9.790;2023-01-15T13:42:29;123.05;;;77.20;;
51298;SDS011;37382;45.192;9.790;2023-01-15T13:44:58;129.30;;;82.00;;
51298;SDS011;37382;45.192;9.790;2023-01-15T13:47:48;141.13;;;87.90;;
51298;SDS011;37382;45.192;9.790;2023-01-15T13:50:26;115.28;;;73.95;;
51298;SDS011;37382;45.192;9.790;2023-01-15T13:53:07;136.60;;;80.90;;
51298;SDS011;37382;45.192;9.790;2023-01-15T13:55:48;138.70;;;85.05;;
51298;SDS011;37382;45.192;9.790;2023-01-15T13:58:25;128.85;;;81.32;;
51298;SDS011;37382;45.192;9.790;2023-01-15T14:01:04;128.15;;;79.10;;
51298;SDS011;37382;45.192;9.790;2023-01-15T14:04:01;127.53;;;79.07;;
51298;SDS011;37382;45.192;9.790;2023-01-15T14:06:36;124.15;;;77.45;;
51298;SDS011;37382;45.192;9.790;2023-01-15T14:11:44;129.90;;;80.75;;
51298;SDS011;37382;45.192;9.790;2023-01-15T14:14:33;129.45;;;80.88;;
51298;SDS011;37382;45.192;9.790;2023-01-15T14:25:58;136.52;;;83.95;;
51298;SDS011;37382;45.192;9.790;2023-01-15T14:39:24;155.75;;;89.40;;
51298;SDS011;37382;45.192;9.790;2023-01-15T14:52:50;140.45;;;84.82;;
51298;SDS011;37382;45.192;9.790;2023-01-15T14:55:20;136.40;;;79.43;;
51298;SDS011;37382;45.192;9.790;2023-01-15T14:58:00;146.57;;;85.75;;
51298;SDS011;37382;45.192;9.790;2023-01-15T15:00:35;139.73;;;81.97;;
51298;SDS011;37382;45.192;9.790;2023-01-15T15:05:44;142.80;;;80.47;;
51298;SDS011;37382;45.192;9.790;2023-01-15T15:08:13;144.75;;;85.55;;
51298;SDS011;37382;45.192;9.790;2023-01-15T15:10:44;145.60;;;83.57;;
51298;SDS011;37382;45.192;9.790;2023-01-15T15:13:35;140.48;;;83.75;;
51298;SDS011;37382;45.192;9.790;2023-01-15T15:16:07;139.55;;;82.88;;
51298;SDS011;37382;45.192;9.790;2023-01-15T15:21:27;141.90;;;82.63;;
51298;SDS011;37382;45.192;9.790;2023-01-15T15:24:11;153.52;;;89.50;;
51298;SDS011;37382;45.192;9.790;2023-01-15T15:26:40;138.27;;;83.50;;
51298;SDS011;37382;45.192;9.790;2023-01-15T15:31:56;141.23;;;80.10;;
51298;SDS011;37382;45.192;9.790;2023-01-15T15:36:59;131.68;;;79.18;;
51298;SDS011;37382;45.192;9.790;2023-01-15T15:42:00;128.63;;;74.75;;
51298;SDS011;37382;45.192;9.790;2023-01-15T15:44:49;137.25;;;77.72;;
51298;SDS011;37382;45.192;9.790;2023-01-15T15:47:40;131.25;;;77.03;;
51298;SDS011;37382;45.192;9.790;2023-01-15T15:55:34;132.98;;;77.07;;
51298;SDS011;37382;45.192;9.790;2023-01-15T15:58:05;141.38;;;77.93;;
51298;SDS011;37382;45.192;9.790;2023-01-15T16:00:37;139.80;;;78.78;;
51298;SDS011;37382;45.192;9.790;2023-01-15T16:03:17;135.57;;;81.32;;
51298;SDS011;37382;45.192;9.790;2023-01-15T16:06:00;130.98;;;75.53;;
51298;SDS011;37382;45.192;9.790;2023-01-15T16:08:34;137.18;;;80.28;;
51298;SDS011;37382;45.192;9.790;2023-01-15T16:11:05;129.25;;;78.80;;
51298;SDS011;37382;45.192;9.790;2023-01-15T16:13:41;130.68;;;79.07;;
51298;SDS011;37382;45.192;9.790;2023-01-15T16:16:12;146.45;;;81.60;;
51298;SDS011;37382;45.192;9.790;2023-01-15T16:18:43;142.07;;;85.05;;
51298;SDS011;37382;45.192;9.790;2023-01-15T16:21:19;142.80;;;83.25;;
51298;SDS011;37382;45.192;9.790;2023-01-15T16:24:00;138.65;;;83.13;;
51298;SDS011;37382;45.192;9.790;2023-01-15T16:26:36;133.48;;;83.07;;
51298;SDS011;37382;45.192;9.790;2023-01-15T16:29:16;135.82;;;81.38;;
51298;SDS011;37382;45.192;9.790;2023-01-15T16:31:47;132.18;;;81.18;;
51298;SDS011;37382;45.192;9.790;2023-01-15T16:34:19;137.60;;;83.07;;
51298;SDS011;37382;45.192;9.790;2023-01-15T16:36:49;139.77;;;81.78;;
51298;SDS011;37382;45.192;9.790;2023-01-15T16:39:21;137.55;;;81.50;;
51298;SDS011;37382;45.192;9.790;2023-01-15T16:41:53;140.88;;;78.80;;
51298;SDS011;37382;45.192;9.790;2023-01-15T16:44:31;145.40;;;83.18;;
51298;SDS011;37382;45.192;9.790;2023-01-15T16:47:04;148.88;;;84.45;;
51298;SDS011;37382;45.192;9.790;2023-01-15T16:49:32;136.32;;;83.70;;
51298;SDS011;37382;45.192;9.790;2023-01-15T16:52:01;133.52;;;83.18;;
51298;SDS011;37382;45.192;9.790;2023-01-15T16:56:57;138.57;;;84.97;;
51298;SDS011;37382;45.192;9.790;2023-01-15T17:04:34;138.38;;;83.70;;
51298;SDS011;37382;45.192;9.790;2023-01-15T17:07:05;146.32;;;85.88;;
51298;SDS011;37382;45.192;9.790;2023-01-15T17:09:45;138.02;;;83.40;;
51298;SDS011;37382;45.192;9.790;2023-01-15T17:12:26;145.98;;;87.55;;
51298;SDS011;37382;45.192;9.790;2023-01-15T17:17:43;150.25;;;92.07;;
51298;SDS011;37382;45.192;9.790;2023-01-15T17:20:12;149.40;;;90.95;;
51298;SDS011;37382;45.192;9.790;2023-01-15T17:22:42;157.80;;;89.25;;
51298;SDS011;37382;45.192;9.790;2023-01-15T17:25:26;140.30;;;85.90;;
51298;SDS011;37382;45.192;9.790;2023-01-15T17:28:02;144.93;;;87.53;;
51298;SDS011;37382;45.192;9.790;2023-01-15T17:30:30;140.48;;;86.20;;
51298;SDS011;37382;45.192;9.790;2023-01-15T17:33:02;139.52;;;86.78;;
51298;SDS011;37382;45.192;9.790;2023-01-15T17:35:32;152.85;;;91.65;;
51298;SDS011;37382;45.192;9.790;2023-01-15T17:38:01;155.75;;;88.65;;
51298;SDS011;37382;45.192;9.790;2023-01-15T17:40:29;176.45;;;100.22;;
51298;SDS011;37382;45.192;9.790;2023-01-15T17:42:58;190.00;;;108.35;;
51298;SDS011;37382;45.192;9.790;2023-01-15T17:45:27;154.70;;;91.15;;
51298;SDS011;37382;45.192;9.790;2023-01-15T17:47:56;156.43;;;94.78;;
51298;SDS011;37382;45.192;9.790;2023-01-15T17:50:24;158.70;;;96.47;;
51298;SDS011;37382;45.192;9.790;2023-01-15T17:52:52;159.05;;;95.30;;
51298;SDS011;37382;45.192;9.790;2023-01-15T17:55:20;156.65;;;94.55;;
51298;SDS011;37382;45.192;9.790;2023-01-15T17:58:11;164.88;;;92.70;;
51298;SDS011;37382;45.192;9.790;2023-01-15T18:00:58;145.27;;;84.88;;
51298;SDS011;37382;45.192;9.790;2023-01-15T18:03:46;144.05;;;86.03;;
51298;SDS011;37382;45.192;9.790;2023-01-15T18:06:35;143.57;;;83.93;;
51298;SDS011;37382;45.192;9.790;2023-01-15T18:09:04;152.00;;;86.00;;
51298;SDS011;37382;45.192;9.790;2023-01-15T18:11:34;154.70;;;92.22;;
51298;SDS011;37382;45.192;9.790;2023-01-15T18:14:01;165.30;;;97.45;;
51298;SDS011;37382;45.192;9.790;2023-01-15T18:16:29;173.75;;;104.07;;
51298;SDS011;37382;45.192;9.790;2023-01-15T18:18:56;158.43;;;90.75;;
51298;SDS011;37382;45.192;9.790;2023-01-15T18:21:24;153.75;;;87.85;;
51298;SDS011;37382;45.192;9.790;2023-01-15T18:23:51;178.05;;;104.18;;
51298;SDS011;37382;45.192;9.790;2023-01-15T18:26:18;171.30;;;96.80;;
51298;SDS011;37382;45.192;9.790;2023-01-15T18:28:46;157.63;;;92.35;;
51298;SDS011;37382;45.192;9.790;2023-01-15T18:31:14;158.00;;;91.63;;
51298;SDS011;37382;45.192;9.790;2023-01-15T18:33:42;162.82;;;92.93;;
51298;SDS011;37382;45.192;9.790;2023-01-15T18:36:10;157.73;;;87.88;;
51298;SDS011;37382;45.192;9.790;2023-01-15T18:38:39;164.45;;;95.32;;
51298;SDS011;37382;45.192;9.790;2023-01-15T18:41:14;146.30;;;89.63;;
51298;SDS011;37382;45.192;9.790;2023-01-15T18:44:19;157.40;;;91.07;;
51298;SDS011;37382;45.192;9.790;2023-01-15T18:47:26;149.00;;;88.70;;
51298;SDS011;37382;45.192;9.790;2023-01-15T18:49:54;156.27;;;90.93;;
51298;SDS011;37382;45.192;9.790;2023-01-15T18:52:22;156.90;;;91.32;;
51298;SDS011;37382;45.192;9.790;2023-01-15T18:55:08;162.45;;;95.30;;
51298;SDS011;37382;45.192;9.790;2023-01-15T18:57:36;158.13;;;89.78;;
51298;SDS011;37382;45.192;9.790;2023-01-15T19:00:04;150.13;;;88.80;;
51298;SDS011;37382;45.192;9.790;2023-01-15T19:02:31;148.25;;;89.32;;
51298;SDS011;37382;45.192;9.790;2023-01-15T19:04:59;147.95;;;87.15;;
51298;SDS011;37382;45.192;9.790;2023-01-15T19:07:26;162.45;;;92.78;;
51298;SDS011;37382;45.192;9.790;2023-01-15T19:09:54;164.48;;;95.68;;
51298;SDS011;37382;45.192;9.790;2023-01-15T19:12:21;186.55;;;108.85;;
51298;SDS011;37382;45.192;9.790;2023-01-15T19:14:49;166.82;;;98.07;;
51298;SDS011;37382;45.192;9.790;2023-01-15T19:17:35;155.10;;;89.70;;
51298;SDS011;37382;45.192;9.790;2023-01-15T19:20:21;165.07;;;95.63;;
51298;SDS011;37382;45.192;9.790;2023-01-15T19:22:49;162.57;;;94.53;;
51298;SDS011;37382;45.192;9.790;2023-01-15T19:25:26;173.68;;;99.90;;
51298;SDS011;37382;45.192;9.790;2023-01-15T19:27:56;188.30;;;105.22;;
51298;SDS011;37382;45.192;9.790;2023-01-15T19:30:25;164.73;;;95.95;;
51298;SDS011;37382;45.192;9.790;2023-01-15T19:32:54;151.45;;;87.78;;
51298;SDS011;37382;45.192;9.790;2023-01-15T19:35:22;152.95;;;89.25;;
51298;SDS011;37382;45.192;9.790;2023-01-15T19:37:49;137.00;;;84.18;;
51298;SDS011;37382;45.192;9.790;2023-01-15T19:40:18;144.25;;;86.72;;
51298;SDS011;37382;45.192;9.790;2023-01-15T19:42:55;158.38;;;91.60;;
51298;SDS011;37382;45.192;9.790;2023-01-15T19:45:41;152.40;;;89.50;;
51298;SDS011;37382;45.192;9.790;2023-01-15T19:48:29;163.98;;;97.53;;
51298;SDS011;37382;45.192;9.790;2023-01-15T19:51:17;162.05;;;96.43;;
51298;SDS011;37382;45.192;9.790;2023-01-15T19:53:46;146.45;;;86.72;;
51298;SDS011;37382;45.192;9.790;2023-01-15T19:56:13;125.93;;;83.05;;
51298;SDS011;37382;45.192;9.790;2023-01-15T19:58:41;130.60;;;83.63;;
51298;SDS011;37382;45.192;9.790;2023-01-15T20:01:14;128.90;;;83.90;;
51298;SDS011;37382;45.192;9.790;2023-01-15T20:03:44;129.90;;;81.35;;
51298;SDS011;37382;45.192;9.790;2023-01-15T20:06:12;116.03;;;75.82;;
51298;SDS011;37382;45.192;9.790;2023-01-15T20:08:39;115.43;;;78.55;;
51298;SDS011;37382;45.192;9.790;2023-01-15T20:11:07;126.55;;;81.32;;
51298;SDS011;37382;45.192;9.790;2023-01-15T20:13:35;127.20;;;81.35;;
51298;SDS011;37382;45.192;9.790;2023-01-15T20:16:20;129.82;;;84.22;;
51298;SDS011;37382;45.192;9.790;2023-01-15T20:18:49;127.82;;;81.32;;
51298;SDS011;37382;45.192;9.790;2023-01-15T20:21:18;128.70;;;82.07;;
51298;SDS011;37382;45.192;9.790;2023-01-15T20:23:46;128.95;;;83.35;;
51298;SDS011;37382;45.192;9.790;2023-01-15T20:26:13;122.32;;;80.57;;
51298;SDS011;37382;45.192;9.790;2023-01-15T20:28:41;122.70;;;81.38;;
51298;SDS011;37382;45.192;9.790;2023-01-15T20:31:15;123.47;;;80.65;;
51298;SDS011;37382;45.192;9.790;2023-01-15T20:33:44;130.18;;;82.85;;
51298;SDS011;37382;45.192;9.790;2023-01-15T20:36:12;121.68;;;80.05;;
51298;SDS011;37382;45.192;9.790;2023-01-15T20:38:40;125.32;;;82.63;;
51298;SDS011;37382;45.192;9.790;2023-01-15T20:41:08;129.27;;;82.70;;
51298;SDS011;37382;45.192;9.790;2023-01-15T20:43:55;132.07;;;85.15;;
51298;SDS011;37382;45.192;9.790;2023-01-15T20:46:41;122.97;;;82.13;;
51298;SDS011;37382;45.192;9.790;2023-01-15T20:49:09;120.03;;;80.10;;
51298;SDS011;37382;45.192;9.790;2023-01-15T20:51:54;123.03;;;80.95;;
51298;SDS011;37382;45.192;9.790;2023-01-15T20:54:24;123.82;;;81.65;;
51298;SDS011;37382;45.192;9.790;2023-01-15T20:56:52;121.72;;;81.47;;
51298;SDS011;37382;45.192;9.790;2023-01-15T20:59:20;131.60;;;86.07;;
51298;SDS011;37382;45.192;9.790;2023-01-15T21:01:47;128.10;;;85.60;;
51298;SDS011;37382;45.192;9.790;2023-01-15T21:04:15;125.55;;;82.72;;
51298;SDS011;37382;45.192;9.790;2023-01-15T21:06:43;128.27;;;80.47;;
51298;SDS011;37382;45.192;9.790;2023-01-15T21:09:10;120.88;;;78.68;;
51298;SDS011;37382;45.192;9.790;2023-01-15T21:11:38;123.43;;;79.65;;
51298;SDS011;37382;45.192;9.790;2023-01-15T21:14:06;125.70;;;82.22;;
51298;SDS011;37382;45.192;9.790;2023-01-15T21:16:34;120.30;;;80.45;;
51298;SDS011;37382;45.192;9.790;2023-01-15T21:19:01;138.00;;;87.38;;
51298;SDS011;37382;45.192;9.790;2023-01-15T21:21:30;124.90;;;81.70;;
51298;SDS011;37382;45.192;9.790;2023-01-15T21:23:59;140.18;;;91.03;;
51298;SDS011;37382;45.192;9.790;2023-01-15T21:26:27;173.93;;;103.40;;
51298;SDS011;37382;45.192;9.790;2023-01-15T21:28:55;159.52;;;97.95;;
51298;SDS011;37382;45.192;9.790;2023-01-15T21:31:23;155.48;;;97.15;;
51298;SDS011;37382;45.192;9.790;2023-01-15T21:33:53;158.10;;;96.95;;
51298;SDS011;37382;45.192;9.790;2023-01-15T21:36:22;124.63;;;81.53;;
51298;SDS011;37382;45.192;9.790;2023-01-15T21:38:50;119.60;;;78.47;;
51298;SDS011;37382;45.192;9.790;2023-01-15T21:41:20;126.25;;;81.20;;
51298;SDS011;37382;45.192;9.790;2023-01-15T21:44:12;128.52;;;83.03;;
51298;SDS011;37382;45.192;9.790;2023-01-15T21:47:17;144.77;;;88.28;;
51298;SDS011;37382;45.192;9.790;2023-01-15T21:49:45;138.73;;;85.60;;
51298;SDS011;37382;45.192;9.790;2023-01-15T21:52:14;144.02;;;86.70;;
51298;SDS011;37382;45.192;9.790;2023-01-15T21:54:44;133.35;;;84.00;;